Time;durP1;ratioP1;P1;durP2;ratioP2;P2;SDS_P1;SDS_P2;PMS_P1;PMS_P2;Temp;Humidity;BMP_temperature;BMP_pressure;BME280_temperature;BME280_humidity;BME280_pressure;Samples;Min_cycle;Max_cycle;Signal;HPM_P1;HPM_P2
2022/07/14 00:00:53;;;;;;;3.47;1.30;;;;;;;;;;10331535;28;20050;-74
2022/07/14 00:05:53;;;;;;;1.42;1.30;;;;;;;;;;10313976;28;20046;-76
2022/07/14 00:10:54;;;;;;;4.18;2.08;;;;;;;;;;10330968;28;20497;-75
2022/07/14 00:15:54;;;;;;;1.90;1.77;;;;;;;;;;10313524;28;20073;-76
2022/07/14 00:20:54;;;;;;;1.98;1.70;;;;;;;;;;10313255;28;20125;-75
2022/07/14 00:25:55;;;;;;;4.88;1.90;;;;;;;;;;10313452;28;20038;-75
2022/07/14 00:30:55;;;;;;;4.82;2.10;;;;;;;;;;10313409;28;20119;-75
2022/07/14 00:35:55;;;;;;;13.63;2.22;;;;;;;;;;10313178;28;20108;-75
2022/07/14 00:40:55;;;;;;;2.57;1.60;;;;;;;;;;10313006;28;20038;-75
2022/07/14 00:45:56;;;;;;;4.57;2.67;;;;;;;;;;10313083;28;20030;-75
2022/07/14 00:50:56;;;;;;;5.80;1.92;;;;;;;;;;10315938;28;20038;-75
2022/07/14 00:55:57;;;;;;;3.90;1.80;;;;;;;;;;10321097;28;20085;-75
2022/07/14 01:00:58;;;;;;;2.13;1.77;;;;;;;;;;10338553;28;20053;-74
2022/07/14 01:05:58;;;;;;;10.52;1.90;;;;;;;;;;10320887;28;20034;-75
2022/07/14 01:10:58;;;;;;;2.15;1.80;;;;;;;;;;10320758;28;20518;-75
2022/07/14 01:16:02;;;;;;;2.25;1.90;;;;;;;;;;10320796;28;20045;-74
2022/07/14 01:21:06;;;;;;;1.98;1.88;;;;;;;;;;10320037;28;20492;-74
2022/07/14 01:26:06;;;;;;;3.15;1.63;;;;;;;;;;10320152;28;20049;-75
2022/07/14 01:31:06;;;;;;;7.50;1.92;;;;;;;;;;10319997;28;20041;-75
2022/07/14 01:36:07;;;;;;;1.98;1.67;;;;;;;;;;10319663;28;20487;-75
2022/07/14 01:41:07;;;;;;;2.60;1.40;;;;;;;;;;10319499;28;20030;-75
2022/07/14 01:46:08;;;;;;;2.80;1.80;;;;;;;;;;10319344;28;20045;-75
2022/07/14 01:51:08;;;;;;;4.30;2.03;;;;;;;;;;10319023;28;20033;-75
2022/07/14 01:56:09;;;;;;;2.38;2.10;;;;;;;;;;10318926;28;20038;-75
2022/07/14 02:06:30;;;;;;;1.73;1.52;;;;;;;;;;10336526;28;20030;-74
2022/07/14 02:16:49;;;;;;;3.30;1.83;;;;;;;;;;10335971;28;20042;-74
2022/07/14 02:21:51;;;;;;;7.20;1.85;;;;;;;;;;10317780;28;20038;-74
2022/07/14 02:26:51;;;;;;;5.03;2.38;;;;;;;;;;10317842;28;20058;-74
2022/07/14 02:31:51;;;;;;;2.30;1.75;;;;;;;;;;10317495;28;20092;-74
2022/07/14 02:36:52;;;;;;;6.72;1.90;;;;;;;;;;10317460;28;20401;-74
2022/07/14 02:41:52;;;;;;;2.70;1.80;;;;;;;;;;10317233;28;20034;-74
2022/07/14 02:46:52;;;;;;;5.73;4.33;;;;;;;;;;10316960;28;20309;-76
2022/07/14 02:51:53;;;;;;;8.05;4.00;;;;;;;;;;10316630;28;20093;-74
2022/07/14 02:56:53;;;;;;;4.45;3.45;;;;;;;;;;10316543;28;20038;-75
2022/07/14 03:01:53;;;;;;;5.60;3.33;;;;;;;;;;10316720;28;20500;-75
2022/07/14 03:06:53;;;;;;;6.72;2.15;;;;;;;;;;10316159;28;20116;-75
2022/07/14 03:11:54;;;;;;;2.50;1.95;;;;;;;;;;10315901;28;20416;-75
2022/07/14 03:16:54;;;;;;;5.07;2.15;;;;;;;;;;10315731;28;20133;-75
2022/07/14 03:21:54;;;;;;;5.07;2.13;;;;;;;;;;10346111;28;20030;-74
2022/07/14 03:26:55;;;;;;;3.63;2.13;;;;;;;;;;10315353;28;20035;-74
2022/07/14 03:31:55;;;;;;;1.83;1.67;;;;;;;;;;10315401;28;20473;-75
2022/07/14 03:36:56;;;;;;;2.10;1.85;;;;;;;;;;10314897;28;20125;-75
2022/07/14 03:41:56;;;;;;;3.40;1.98;;;;;;;;;;10314896;28;20522;-74
2022/07/14 03:46:56;;;;;;;3.20;2.30;;;;;;;;;;10314567;28;20386;-75
2022/07/14 03:51:57;;;;;;;6.43;2.47;;;;;;;;;;10314349;28;20104;-75
2022/07/14 03:56:57;;;;;;;7.63;2.47;;;;;;;;;;10314074;28;20125;-75
2022/07/14 04:01:57;;;;;;;12.18;2.15;;;;;;;;;;10314041;28;20057;-76
2022/07/14 04:06:57;;;;;;;7.32;1.70;;;;;;;;;;10313949;28;20516;-75
2022/07/14 04:11:58;;;;;;;4.03;2.40;;;;;;;;;;10313638;28;20038;-75
2022/07/14 04:16:58;;;;;;;3.00;1.77;;;;;;;;;;10313640;28;20044;-76
2022/07/14 04:21:59;;;;;;;2.10;1.70;;;;;;;;;;10330909;28;20493;-75
2022/07/14 04:27:00;;;;;;;4.00;1.85;;;;;;;;;;10312992;28;20042;-75
2022/07/14 04:32:00;;;;;;;2.22;1.92;;;;;;;;;;10313224;28;20030;-75
2022/07/14 04:37:00;;;;;;;2.40;1.85;;;;;;;;;;10312892;28;20038;-74
2022/07/14 04:42:01;;;;;;;4.50;1.92;;;;;;;;;;10296676;28;20026;-75
2022/07/14 04:47:02;;;;;;;3.03;1.88;;;;;;;;;;10312618;28;20042;-75
2022/07/14 04:52:02;;;;;;;2.00;1.65;;;;;;;;;;10312502;28;20038;-75
2022/07/14 04:57:03;;;;;;;5.53;2.27;;;;;;;;;;10312500;28;20038;-75
2022/07/14 05:02:04;;;;;;;3.97;1.70;;;;;;;;;;10312146;28;20050;-75
2022/07/14 05:07:04;;;;;;;6.57;1.90;;;;;;;;;;10312082;28;20030;-76
2022/07/14 05:12:05;;;;;;;9.40;2.47;;;;;;;;;;10311556;28;20034;-75
2022/07/14 05:17:06;;;;;;;3.95;2.10;;;;;;;;;;10311818;28;20278;-75
2022/07/14 05:22:06;;;;;;;5.65;1.38;;;;;;;;;;10312021;28;20026;-77
2022/07/14 05:27:06;;;;;;;7.75;2.00;;;;;;;;;;10311899;28;20040;-76
2022/07/14 05:32:06;;;;;;;5.13;2.08;;;;;;;;;;10311698;28;20042;-74
2022/07/14 05:37:06;;;;;;;6.00;1.83;;;;;;;;;;10312849;28;20069;-74
2022/07/14 05:42:07;;;;;;;4.32;1.50;;;;;;;;;;10318825;28;20120;-75
2022/07/14 05:47:07;;;;;;;5.17;1.70;;;;;;;;;;10319081;28;20065;-75
2022/07/14 05:52:10;;;;;;;5.70;1.80;;;;;;;;;;10318690;28;20042;-75
2022/07/14 05:57:13;;;;;;;4.78;1.80;;;;;;;;;;10318383;28;20038;-75
2022/07/14 06:02:13;;;;;;;4.45;1.70;;;;;;;;;;10318159;28;20050;-75
2022/07/14 06:07:13;;;;;;;8.40;1.50;;;;;;;;;;10335544;28;20512;-75
2022/07/14 06:12:14;;;;;;;3.08;1.60;;;;;;;;;;10350513;28;20414;-75
2022/07/14 06:17:15;;;;;;;8.30;1.97;;;;;;;;;;10317777;28;20030;-76
2022/07/14 06:22:15;;;;;;;6.82;2.63;;;;;;;;;;10335628;28;20453;-75
2022/07/14 06:27:15;;;;;;;7.43;1.85;;;;;;;;;;10317744;28;20100;-75
2022/07/14 06:32:15;;;;;;;7.07;2.88;;;;;;;;;;10317092;28;20565;-76
2022/07/14 06:37:17;;;;;;;4.70;1.80;;;;;;;;;;10334399;28;20038;-76
2022/07/14 06:42:17;;;;;;;4.90;2.58;;;;;;;;;;10316740;28;20034;-75
2022/07/14 06:47:17;;;;;;;5.25;1.80;;;;;;;;;;10333738;28;20065;-75
2022/07/14 06:52:18;;;;;;;11.43;3.03;;;;;;;;;;10316360;28;20049;-75
2022/07/14 06:57:18;;;;;;;13.27;2.53;;;;;;;;;;10316453;28;20117;-75
2022/07/14 07:02:19;;;;;;;12.95;2.47;;;;;;;;;;10316145;28;20483;-74
2022/07/14 07:07:19;;;;;;;8.95;2.40;;;;;;;;;;10315826;28;20044;-74
2022/07/14 07:12:19;;;;;;;4.63;2.42;;;;;;;;;;10315562;28;20046;-74
2022/07/14 07:17:20;;;;;;;8.38;2.33;;;;;;;;;;10315816;28;20416;-74
2022/07/14 07:22:20;;;;;;;7.83;2.33;;;;;;;;;;10315177;28;20026;-75
2022/07/14 07:27:20;;;;;;;7.05;2.17;;;;;;;;;;10332420;28;20038;-74
2022/07/14 07:32:21;;;;;;;12.80;1.70;;;;;;;;;;10314613;28;20073;-74
2022/07/14 07:37:21;;;;;;;7.78;1.95;;;;;;;;;;10314474;28;20049;-74
2022/07/14 07:42:21;;;;;;;6.15;1.75;;;;;;;;;;10314414;28;20489;-74
2022/07/14 07:47:23;;;;;;;7.68;1.70;;;;;;;;;;10314468;28;20069;-74
2022/07/14 07:52:23;;;;;;;8.45;1.60;;;;;;;;;;10314453;28;20485;-74
2022/07/14 07:57:23;;;;;;;8.02;1.33;;;;;;;;;;10331619;28;20041;-75
2022/07/14 08:02:24;;;;;;;4.75;1.42;;;;;;;;;;10313299;28;20599;-74
2022/07/14 08:07:25;;;;;;;2.25;1.20;;;;;;;;;;10313894;28;20108;-74
2022/07/14 08:12:25;;;;;;;7.85;1.60;;;;;;;;;;10313515;28;20089;-74
2022/07/14 08:17:25;;;;;;;7.50;1.20;;;;;;;;;;10313150;28;20039;-75
2022/07/14 08:22:26;;;;;;;3.50;0.85;;;;;;;;;;10313116;28;20400;-75
2022/07/14 08:27:27;;;;;;;4.30;0.65;;;;;;;;;;10313038;28;20074;-75
2022/07/14 08:32:33;;;;;;;1.60;0.80;;;;;;;;;;10312974;28;20077;-75
2022/07/14 08:37:34;;;;;;;0.88;0.60;;;;;;;;;;10312948;28;20030;-74
2022/07/14 08:42:34;;;;;;;2.72;1.00;;;;;;;;;;10330096;28;20118;-74
2022/07/14 08:47:35;;;;;;;9.77;1.35;;;;;;;;;;10330181;28;20037;-74
2022/07/14 08:52:36;;;;;;;4.35;0.70;;;;;;;;;;10312692;28;20488;-76
2022/07/14 08:57:37;;;;;;;3.95;0.90;;;;;;;;;;10330568;28;20053;-75
2022/07/14 09:02:38;;;;;;;2.95;1.60;;;;;;;;;;10312358;28;20042;-75
2022/07/14 09:07:39;;;;;;;2.95;1.05;;;;;;;;;;10312231;28;20091;-75
2022/07/14 09:12:39;;;;;;;1.08;0.63;;;;;;;;;;10316778;28;20473;-74
2022/07/14 09:17:55;;;;;;;5.03;0.73;;;;;;;;;;10320341;28;20046;-75
2022/07/14 09:22:57;;;;;;;2.63;0.65;;;;;;;;;;10320307;28;20037;-74
2022/07/14 09:27:57;;;;;;;4.05;0.68;;;;;;;;;;10337451;28;20547;-74
2022/07/14 09:32:58;;;;;;;5.70;0.70;;;;;;;;;;10320046;28;20129;-74
2022/07/14 09:37:58;;;;;;;6.68;0.88;;;;;;;;;;10336959;28;20304;-74
2022/07/14 09:42:59;;;;;;;2.67;0.73;;;;;;;;;;10319569;28;20030;-74
2022/07/14 09:48:02;;;;;;;5.63;1.00;;;;;;;;;;10336655;28;20049;-74
2022/07/14 09:53:18;;;;;;;2.03;0.65;;;;;;;;;;10319194;28;20038;-74
2022/07/14 09:58:20;;;;;;;2.80;0.60;;;;;;;;;;10318391;28;20034;-75
2022/07/14 10:03:20;;;;;;;2.28;0.77;;;;;;;;;;10318187;28;20042;-74
2022/07/14 10:08:26;;;;;;;3.80;1.00;;;;;;;;;;10318205;28;20034;-74
2022/07/14 10:13:26;;;;;;;8.57;0.73;;;;;;;;;;10317922;28;20451;-74
2022/07/14 10:18:27;;;;;;;3.77;0.70;;;;;;;;;;10317896;28;20046;-74
2022/07/14 10:23:29;;;;;;;3.95;0.60;;;;;;;;;;10334558;28;20105;-74
2022/07/14 10:28:29;;;;;;;6.40;0.47;;;;;;;;;;10317803;28;20061;-75
2022/07/14 10:34:03;;;;;;;7.40;0.95;;;;;;;;;;10317409;28;20035;-73
2022/07/14 10:39:07;;;;;;;5.78;0.70;;;;;;;;;;10316733;28;20041;-75
2022/07/14 10:44:18;;;;;;;4.32;0.73;;;;;;;;;;10316954;28;20038;-74
2022/07/14 10:49:18;;;;;;;3.70;0.70;;;;;;;;;;10316713;28;20109;-75
2022/07/14 10:54:24;;;;;;;5.50;0.63;;;;;;;;;;10317181;28;20494;-74
2022/07/14 10:59:27;;;;;;;4.05;0.70;;;;;;;;;;10333671;28;20066;-75
2022/07/14 11:04:53;;;;;;;2.28;0.50;;;;;;;;;;10315996;28;20065;-74
2022/07/14 11:09:54;;;;;;;16.27;1.35;;;;;;;;;;10312757;28;20041;-74
2022/07/14 11:14:54;;;;;;;5.30;1.20;;;;;;;;;;10315705;28;20481;-75
2022/07/14 11:19:54;;;;;;;5.97;1.13;;;;;;;;;;10315381;28;20034;-73
2022/07/14 11:24:57;;;;;;;3.80;1.67;;;;;;;;;;10315271;28;20080;-73
2022/07/14 11:29:58;;;;;;;10.15;1.52;;;;;;;;;;10315158;28;20034;-73
2022/07/14 11:40:36;;;;;;;2.40;0.93;;;;;;;;;;10332949;28;20030;-75
2022/07/14 11:45:55;;;;;;;4.78;1.80;;;;;;;;;;10331297;28;20034;-74
2022/07/14 11:51:09;;;;;;;3.00;0.70;;;;;;;;;;10331690;28;20038;-75
2022/07/14 11:56:10;;;;;;;4.32;0.70;;;;;;;;;;10313930;28;20117;-74
2022/07/14 12:01:13;;;;;;;2.22;1.50;;;;;;;;;;10313610;28;20042;-74
2022/07/14 12:06:13;;;;;;;1.80;0.90;;;;;;;;;;10313592;28;20113;-75
2022/07/14 12:11:14;;;;;;;3.13;0.88;;;;;;;;;;10313772;28;20124;-75
2022/07/14 12:16:15;;;;;;;1.83;0.90;;;;;;;;;;10313102;28;20125;-75
2022/07/14 12:21:15;;;;;;;5.23;0.80;;;;;;;;;;10313310;28;20034;-75
2022/07/14 12:26:17;;;;;;;6.82;0.98;;;;;;;;;;10330849;28;20265;-75
2022/07/14 12:31:19;;;;;;;0.93;0.80;;;;;;;;;;10313136;28;20034;-75
2022/07/14 12:36:20;;;;;;;2.58;0.63;;;;;;;;;;10330209;28;20065;-74
2022/07/14 12:41:25;;;;;;;1.27;0.63;;;;;;;;;;10312802;28;20038;-74
2022/07/14 12:46:25;;;;;;;3.53;0.88;;;;;;;;;;10312233;28;20030;-74
2022/07/14 12:51:30;;;;;;;2.83;0.80;;;;;;;;;;10312336;28;20031;-76
2022/07/14 12:56:53;;;;;;;3.25;1.25;;;;;;;;;;10312257;28;20062;-75
2022/07/14 13:01:58;;;;;;;4.28;0.70;;;;;;;;;;10312591;28;20049;-75
2022/07/14 13:07:03;;;;;;;1.70;0.95;;;;;;;;;;10330154;28;20027;-75
2022/07/14 13:12:36;;;;;;;1.15;0.80;;;;;;;;;;10313203;28;20114;-74
2022/07/14 13:17:48;;;;;;;4.28;1.15;;;;;;;;;;10280867;28;20053;-73
2022/07/14 13:22:55;;;;;;;4.00;1.13;;;;;;;;;;10313019;28;20061;-76
2022/07/14 13:27:56;;;;;;;4.75;0.73;;;;;;;;;;10312531;28;20066;-74
2022/07/14 13:32:56;;;;;;;1.27;0.65;;;;;;;;;;10311675;28;20116;-76
2022/07/14 13:37:56;;;;;;;1.95;0.80;;;;;;;;;;10311413;28;20031;-73
2022/07/14 13:42:56;;;;;;;2.60;1.10;;;;;;;;;;10311582;28;20069;-74
2022/07/14 13:47:57;;;;;;;5.15;0.82;;;;;;;;;;10310967;28;20027;-74
2022/07/14 13:52:57;;;;;;;6.88;0.80;;;;;;;;;;10311390;28;20069;-75
2022/07/14 13:57:57;;;;;;;2.33;0.55;;;;;;;;;;10312266;28;20030;-74
2022/07/14 14:08:16;;;;;;;2.30;0.70;;;;;;;;;;10336061;28;20043;-74
2022/07/14 14:13:17;;;;;;;8.98;1.00;;;;;;;;;;10317653;28;20504;-74
2022/07/14 14:18:17;;;;;;;0.82;0.70;;;;;;;;;;10317657;28;20046;-74
2022/07/14 14:23:18;;;;;;;5.22;0.77;;;;;;;;;;10317512;28;20041;-74
2022/07/14 14:28:19;;;;;;;4.05;1.50;;;;;;;;;;10317217;28;20042;-75
2022/07/14 14:33:19;;;;;;;9.65;0.80;;;;;;;;;;10349701;28;20480;-75
2022/07/14 14:38:20;;;;;;;3.92;0.63;;;;;;;;;;10317060;28;20088;-74
2022/07/14 14:43:20;;;;;;;3.65;0.80;;;;;;;;;;10316810;28;20034;-73
2022/07/14 14:48:20;;;;;;;4.10;1.00;;;;;;;;;;10316389;28;20038;-74
2022/07/14 14:53:20;;;;;;;2.42;0.82;;;;;;;;;;10316480;28;20042;-75
2022/07/14 14:58:21;;;;;;;1.52;0.90;;;;;;;;;;10315748;28;20151;-74
2022/07/14 15:03:21;;;;;;;0.88;0.77;;;;;;;;;;10315896;28;20046;-74
2022/07/14 15:08:21;;;;;;;0.63;0.50;;;;;;;;;;10315801;28;20034;-74
2022/07/14 15:13:22;;;;;;;2.03;0.83;;;;;;;;;;10315346;28;20034;-73
2022/07/14 15:18:22;;;;;;;3.60;1.00;;;;;;;;;;10315609;28;20045;-75
2022/07/14 15:23:22;;;;;;;2.35;0.63;;;;;;;;;;10315475;28;20052;-73
2022/07/14 15:28:22;;;;;;;1.13;0.50;;;;;;;;;;10315051;28;20042;-74
2022/07/14 15:33:28;;;;;;;4.70;1.17;;;;;;;;;;10332183;28;20034;-74
2022/07/14 15:38:28;;;;;;;2.63;0.77;;;;;;;;;;10314711;28;20177;-74
2022/07/14 15:43:28;;;;;;;4.10;1.10;;;;;;;;;;10314502;28;20137;-74
2022/07/14 15:48:28;;;;;;;3.03;0.60;;;;;;;;;;10331502;28;20038;-74
2022/07/14 15:53:29;;;;;;;1.07;0.67;;;;;;;;;;10331885;28;20030;-75
2022/07/14 15:58:29;;;;;;;3.33;1.50;;;;;;;;;;10314034;28;20503;-74
2022/07/14 16:03:30;;;;;;;3.50;0.80;;;;;;;;;;10331158;28;20077;-76
2022/07/14 16:08:30;;;;;;;3.88;1.27;;;;;;;;;;10313807;28;20526;-75
2022/07/14 16:13:31;;;;;;;9.50;1.48;;;;;;;;;;10313412;28;20076;-75
2022/07/14 16:18:31;;;;;;;3.38;0.60;;;;;;;;;;10313290;28;20042;-76
2022/07/14 16:23:32;;;;;;;1.20;0.63;;;;;;;;;;10330415;28;20050;-75
2022/07/14 16:28:32;;;;;;;5.47;1.67;;;;;;;;;;10330724;28;20049;-76
2022/07/14 16:33:33;;;;;;;6.47;1.25;;;;;;;;;;10313288;28;20041;-74
2022/07/14 16:38:33;;;;;;;2.88;0.90;;;;;;;;;;10312960;28;20057;-73
2022/07/14 16:43:34;;;;;;;1.35;1.13;;;;;;;;;;10313201;28;20480;-73
2022/07/14 16:48:34;;;;;;;2.08;0.80;;;;;;;;;;10312784;28;20125;-73
2022/07/14 16:53:35;;;;;;;3.28;1.10;;;;;;;;;;10313100;28;20047;-73
2022/07/14 16:58:36;;;;;;;2.72;0.95;;;;;;;;;;10312856;28;20055;-74
2022/07/14 17:03:36;;;;;;;5.97;1.37;;;;;;;;;;10329762;28;20136;-74
2022/07/14 17:08:38;;;;;;;2.78;1.00;;;;;;;;;;10312227;28;20480;-74
2022/07/14 17:13:38;;;;;;;2.42;0.90;;;;;;;;;;10312114;28;20042;-74
2022/07/14 17:18:39;;;;;;;7.50;1.35;;;;;;;;;;10295830;28;20046;-74
2022/07/14 17:23:39;;;;;;;3.53;1.20;;;;;;;;;;10312167;28;20030;-74
2022/07/14 17:28:39;;;;;;;1.95;0.90;;;;;;;;;;10311863;28;20265;-74
2022/07/14 17:33:40;;;;;;;6.00;1.27;;;;;;;;;;10315831;28;20439;-74
2022/07/14 17:38:40;;;;;;;7.32;1.25;;;;;;;;;;10319520;28;20035;-75
2022/07/14 17:43:41;;;;;;;6.85;1.20;;;;;;;;;;10319233;28;20026;-74
2022/07/14 17:48:41;;;;;;;3.63;1.30;;;;;;;;;;10318867;28;20030;-75
2022/07/14 17:53:41;;;;;;;6.82;1.42;;;;;;;;;;10336778;28;20567;-73
2022/07/14 17:58:41;;;;;;;2.43;1.17;;;;;;;;;;10336296;28;20066;-74
2022/07/14 18:03:42;;;;;;;1.48;1.10;;;;;;;;;;10320559;28;20049;-75
2022/07/14 18:08:42;;;;;;;3.72;1.40;;;;;;;;;;10337004;28;20121;-74
2022/07/14 18:13:42;;;;;;;6.03;1.70;;;;;;;;;;10318844;28;20034;-73
2022/07/14 18:18:42;;;;;;;5.13;2.20;;;;;;;;;;10317860;28;20031;-75
2022/07/14 18:23:43;;;;;;;4.85;1.67;;;;;;;;;;10317668;28;20036;-73
2022/07/14 18:28:43;;;;;;;2.90;1.60;;;;;;;;;;10317829;28;20105;-75
2022/07/14 18:33:44;;;;;;;3.50;1.23;;;;;;;;;;10317649;28;20838;-75
2022/07/14 18:38:45;;;;;;;6.97;1.95;;;;;;;;;;10317430;28;20461;-75
2022/07/14 18:43:45;;;;;;;3.90;1.73;;;;;;;;;;10333776;28;20058;-75
2022/07/14 18:48:49;;;;;;;6.80;1.77;;;;;;;;;;10317137;28;20034;-75
2022/07/14 18:53:49;;;;;;;3.50;1.60;;;;;;;;;;10300967;28;20420;-75
2022/07/14 18:58:49;;;;;;;4.97;2.10;;;;;;;;;;10334212;28;20034;-75
2022/07/14 19:03:50;;;;;;;2.50;1.48;;;;;;;;;;10315976;28;20038;-75
2022/07/14 19:08:50;;;;;;;5.90;1.80;;;;;;;;;;10299631;28;20488;-76
2022/07/14 19:13:51;;;;;;;7.23;1.53;;;;;;;;;;10315729;28;20066;-76
2022/07/14 19:18:52;;;;;;;2.85;1.80;;;;;;;;;;10315465;28;20026;-76
2022/07/14 19:23:52;;;;;;;2.22;1.27;;;;;;;;;;10299103;28;20022;-75
2022/07/14 19:28:53;;;;;;;3.92;1.42;;;;;;;;;;10331809;28;20117;-74
2022/07/14 19:33:53;;;;;;;5.27;1.70;;;;;;;;;;10315154;28;20026;-77
2022/07/14 19:38:53;;;;;;;5.20;1.40;;;;;;;;;;10332382;28;20281;-76
2022/07/14 19:43:54;;;;;;;5.75;1.80;;;;;;;;;;10314817;28;20496;-76
2022/07/14 19:48:54;;;;;;;5.72;1.83;;;;;;;;;;10298312;28;20026;-75
2022/07/14 19:53:54;;;;;;;5.45;1.60;;;;;;;;;;10314429;28;20042;-74
2022/07/14 19:58:55;;;;;;;7.63;2.15;;;;;;;;;;10313264;28;20535;-74
2022/07/14 20:03:57;;;;;;;3.95;2.40;;;;;;;;;;10314189;28;20030;-74
2022/07/14 20:08:57;;;;;;;9.70;2.88;;;;;;;;;;10344384;28;20037;-74
2022/07/14 20:13:57;;;;;;;5.77;2.17;;;;;;;;;;10313764;28;20519;-73
2022/07/14 20:18:58;;;;;;;4.20;1.92;;;;;;;;;;10313397;28;20042;-75
2022/07/14 20:23:59;;;;;;;7.78;2.00;;;;;;;;;;10331012;28;20031;-76
2022/07/14 20:34:18;;;;;;;3.58;1.63;;;;;;;;;;10330697;28;20042;-75
2022/07/14 20:39:18;;;;;;;4.15;1.65;;;;;;;;;;10313025;28;20427;-75
2022/07/14 20:44:18;;;;;;;6.22;2.63;;;;;;;;;;10312997;28;20030;-75
2022/07/14 20:49:18;;;;;;;4.25;2.03;;;;;;;;;;10330087;28;20140;-75
2022/07/14 20:54:19;;;;;;;3.88;1.60;;;;;;;;;;10313351;28;20039;-75
2022/07/14 20:59:19;;;;;;;2.83;1.95;;;;;;;;;;10312334;28;20077;-75
2022/07/14 21:04:19;;;;;;;5.30;2.00;;;;;;;;;;10330093;28;20042;-75
2022/07/14 21:09:19;;;;;;;4.50;1.70;;;;;;;;;;10318022;28;20046;-75
2022/07/14 21:14:20;;;;;;;3.60;1.67;;;;;;;;;;10320872;28;20180;-75
2022/07/14 21:19:20;;;;;;;9.85;1.85;;;;;;;;;;10320097;28;20048;-75
2022/07/14 21:24:20;;;;;;;1.73;1.42;;;;;;;;;;10320411;28;20464;-75
2022/07/14 21:29:20;;;;;;;3.65;1.20;;;;;;;;;;10320160;28;20057;-75
2022/07/14 21:34:21;;;;;;;3.95;1.15;;;;;;;;;;10319852;28;20496;-75
2022/07/14 21:39:21;;;;;;;4.32;1.63;;;;;;;;;;10319848;28;20125;-76
2022/07/14 21:44:22;;;;;;;4.70;1.25;;;;;;;;;;10319906;28;20035;-76
2022/07/14 21:49:22;;;;;;;1.65;1.10;;;;;;;;;;10319293;28;20061;-75
2022/07/14 21:54:22;;;;;;;1.38;1.10;;;;;;;;;;10319193;28;20030;-76
2022/07/14 21:59:22;;;;;;;4.03;1.13;;;;;;;;;;10319041;28;20484;-75
2022/07/14 22:04:23;;;;;;;4.57;1.48;;;;;;;;;;10318915;28;20029;-75
2022/07/14 22:09:23;;;;;;;5.57;1.77;;;;;;;;;;10318811;28;20125;-75
2022/07/14 22:14:23;;;;;;;3.70;1.45;;;;;;;;;;10318724;28;20034;-75
2022/07/14 22:19:23;;;;;;;3.28;1.33;;;;;;;;;;10317378;28;20128;-75
2022/07/14 22:24:24;;;;;;;2.13;1.38;;;;;;;;;;10318298;28;20034;-76
2022/07/14 22:29:24;;;;;;;3.72;1.88;;;;;;;;;;10318151;28;20125;-75
2022/07/14 22:34:24;;;;;;;3.53;1.40;;;;;;;;;;10317852;28;20096;-75
2022/07/14 22:39:24;;;;;;;4.85;1.85;;;;;;;;;;10317851;28;20030;-74
2022/07/14 22:44:25;;;;;;;3.40;1.45;;;;;;;;;;10317583;28;20037;-73
2022/07/14 22:49:25;;;;;;;3.00;1.70;;;;;;;;;;10334751;28;20567;-75
2022/07/14 22:54:27;;;;;;;4.47;2.23;;;;;;;;;;10317338;28;20042;-74
2022/07/14 22:59:28;;;;;;;2.92;1.70;;;;;;;;;;10316707;28;20305;-74
2022/07/14 23:04:28;;;;;;;9.45;2.78;;;;;;;;;;10334381;28;20428;-75
2022/07/14 23:09:28;;;;;;;4.13;2.03;;;;;;;;;;10316420;28;20030;-75
2022/07/14 23:14:29;;;;;;;6.15;2.53;;;;;;;;;;10316354;28;20125;-74
2022/07/14 23:19:30;;;;;;;3.50;1.55;;;;;;;;;;10316088;28;20038;-74
2022/07/14 23:24:30;;;;;;;4.50;1.60;;;;;;;;;;10315973;28;20506;-74
2022/07/14 23:29:30;;;;;;;5.18;2.17;;;;;;;;;;10315687;28;20416;-76
2022/07/14 23:34:31;;;;;;;3.35;1.65;;;;;;;;;;10333171;28;20546;-74
2022/07/14 23:39:31;;;;;;;3.38;1.50;;;;;;;;;;10315481;28;20134;-75
2022/07/14 23:44:31;;;;;;;2.63;1.30;;;;;;;;;;10315217;28;20496;-75
2022/07/14 23:49:32;;;;;;;3.45;1.38;;;;;;;;;;10315063;28;20432;-74
2022/07/14 23:54:32;;;;;;;1.67;1.00;;;;;;;;;;10314683;28;20038;-75
2022/07/14 23:59:32;;;;;;;2.05;1.13;;;;;;;;;;10314265;28;20144;-74
